Spring Branch, Texas
Current Conditions -  °F | °C
As of 10:15 AM on Sunday 25 Jan 2015 (Local Time) from K5C1 Reporting Station
Clear Clear  
Wind Chill: 59°   Ceiling: Unl
Heat Index: 59°   Visibility: 10mi
Dew Point: 32°   Wind: 8mph
Humidity: 36%   Direction: 360°N
Pressure: 30.12"   Gusts: NA
Location:  29.89°N, 98.43°W
Report Text: K5C1 251615Z AUTO 36007KT 10SM CLR 15/00 A3012 RMK AO1
Loading
Personal Weather Stations






























Interactive Weather Map New forecast layout! Learn more

10-Day Weather Forecast

Advertisements
Track Severe Weather on mobile